Time;durP1;ratioP1;P1;durP2;ratioP2;P2;SDS_P1;SDS_P2;PMS_P1;PMS_P2;Temp;Humidity;BMP_temperature;BMP_pressure;BME280_temperature;BME280_humidity;BME280_pressure;Samples;Min_cycle;Max_cycle;Signal;HPM_P1;HPM_P2
2022/02/28 00:01:06;;;;;;;;;;;3.40;89.80;;;;;;4918697;28;19938;-88
2022/02/28 00:03:34;;;;;;;;;;;3.40;89.90;;;;;;4962896;28;19910;-87
2022/02/28 00:06:10;;;;;;;;;;;3.50;89.80;;;;;;4960765;28;20158;-86
2022/02/28 00:11:50;;;;;;;;;;;3.40;89.60;;;;;;4963271;28;19918;-88
2022/02/28 00:14:34;;;;;;;;;;;3.40;89.80;;;;;;4950075;28;19960;-88
2022/02/28 00:17:11;;;;;;;;;;;3.40;90.00;;;;;;4946137;28;20013;-86
2022/02/28 00:19:40;;;;;;;;;;;3.40;90.00;;;;;;4960676;28;19938;-88
2022/02/28 00:22:05;;;;;;;;;;;3.40;90.00;;;;;;4959873;28;19910;-87
2022/02/28 00:24:31;;;;;;;;;;;3.40;90.00;;;;;;4959598;28;20274;-87
2022/02/28 00:27:00;;;;;;;;;;;3.40;90.00;;;;;;4959859;28;19976;-88
2022/02/28 00:29:36;;;;;;;;;;;3.40;90.10;;;;;;4960304;28;20401;-87
2022/02/28 00:32:11;;;;;;;;;;;3.40;90.10;;;;;;4944027;28;19925;-88
2022/02/28 00:34:47;;;;;;;;;;;3.30;90.10;;;;;;4943213;28;19926;-88
2022/02/28 00:37:13;;;;;;;;;;;3.30;90.20;;;;;;4960224;28;20270;-87
2022/02/28 00:39:42;;;;;;;;;;;3.30;90.20;;;;;;4959868;28;19914;-86
2022/02/28 00:42:10;;;;;;;;;;;3.30;90.30;;;;;;4959667;28;20029;-87
2022/02/28 00:44:36;;;;;;;;;;;3.30;90.30;;;;;;4960102;28;19910;-88
2022/02/28 00:47:11;;;;;;;;;;;3.30;90.40;;;;;;4959708;28;19932;-88
2022/02/28 00:49:53;;;;;;;;;;;3.20;90.40;;;;;;4959817;28;19953;-88
2022/02/28 00:52:24;;;;;;;;;;;3.20;90.50;;;;;;4960182;28;19914;-86
2022/02/28 00:54:53;;;;;;;;;;;3.20;90.50;;;;;;4959626;28;20013;-89
2022/02/28 00:57:24;;;;;;;;;;;3.20;90.60;;;;;;4959743;28;19949;-88
2022/02/28 00:59:49;;;;;;;;;;;3.20;90.60;;;;;;4960200;28;19918;-88
2022/02/28 01:05:21;;;;;;;;;;;3.10;90.70;;;;;;4978682;28;19910;-86
2022/02/28 01:07:52;;;;;;;;;;;3.10;90.70;;;;;;4962491;28;19921;-88
2022/02/28 01:10:33;;;;;;;;;;;3.10;90.80;;;;;;4971355;28;20793;-87
2022/02/28 01:13:02;;;;;;;;;;;3.10;90.80;;;;;;4973215;28;19918;-88
2022/02/28 01:15:39;;;;;;;;;;;3.10;90.80;;;;;;4969804;28;19921;-87
2022/02/28 01:18:05;;;;;;;;;;;3.10;90.90;;;;;;4979880;28;19894;-86
2022/02/28 01:20:38;;;;;;;;;;;3.10;90.90;;;;;;4963668;28;19910;-86
2022/02/28 01:23:04;;;;;;;;;;;3.10;90.90;;;;;;4971359;28;19921;-86
2022/02/28 01:25:41;;;;;;;;;;;3.10;90.90;;;;;;4981447;28;19928;-87
2022/02/28 01:28:29;;;;;;;;;;;3.10;91.20;;;;;;4954391;28;19922;-88
2022/02/28 01:31:00;;;;;;;;;;;3.00;90.90;;;;;;4960168;28;19921;-87
2022/02/28 01:34:11;;;;;;;;;;;;;;;;;;;;;
2022/02/28 01:36:44;;;;;;;;;;;3.00;91.00;;;;;;4914525;29;19926;-87
2022/02/28 01:39:18;;;;;;;;;;;3.00;91.10;;;;;;4886180;29;19930;-87
2022/02/28 01:41:46;;;;;;;;;;;3.00;91.10;;;;;;4900909;29;19916;-87
2022/02/28 01:44:22;;;;;;;;;;;3.00;91.10;;;;;;4901282;29;19922;-87
2022/02/28 01:47:10;;;;;;;;;;;3.10;91.10;;;;;;4901196;29;19918;-87
2022/02/28 01:49:46;;;;;;;;;;;3.00;91.10;;;;;;4901505;29;19922;-87
2022/02/28 01:52:14;;;;;;;;;;;3.10;91.20;;;;;;4904930;29;19918;-88
2022/02/28 01:54:43;;;;;;;;;;;3.10;91.10;;;;;;4889669;29;19919;-87
2022/02/28 01:57:20;;;;;;;;;;;3.10;91.10;;;;;;4905135;29;20013;-87
2022/02/28 01:59:46;;;;;;;;;;;3.10;91.10;;;;;;4897441;28;19915;-88
2022/02/28 02:02:20;;;;;;;;;;;3.00;91.20;;;;;;4962596;28;20282;-87
2022/02/28 02:04:56;;;;;;;;;;;;;;;;;;;;;
2022/02/28 02:07:34;;;;;;;;;;;;;;;;;;;;;
2022/02/28 02:10:10;;;;;;;;;;;3.00;91.20;;;;;;4964521;28;19919;-86
2022/02/28 02:12:41;;;;;;;;;;;3.00;91.30;;;;;;4962699;28;19910;-88
2022/02/28 02:15:10;;;;;;;;;;;3.00;91.30;;;;;;4962705;28;19910;-86
2022/02/28 02:17:45;;;;;;;;;;;3.00;91.30;;;;;;4962898;28;20420;-86
2022/02/28 02:20:31;;;;;;;;;;;3.00;91.40;;;;;;4962734;28;19910;-87
2022/02/28 02:23:18;;;;;;;;;;;2.90;91.40;;;;;;4962796;28;19914;-89
2022/02/28 02:25:44;;;;;;;;;;;2.90;91.40;;;;;;4962659;28;19910;-88
2022/02/28 02:28:20;;;;;;;;;;;2.90;91.40;;;;;;4961951;28;19918;-86
2022/02/28 02:31:11;;;;;;;;;;;2.90;91.40;;;;;;4963275;28;19914;-87
2022/02/28 02:33:42;;;;;;;;;;;2.90;91.40;;;;;;4974168;28;19922;-87
2022/02/28 02:36:18;;;;;;;;;;;2.90;91.40;;;;;;4963166;28;19976;-87
2022/02/28 02:38:43;;;;;;;;;;;2.90;91.40;;;;;;4962981;28;19919;-86
2022/02/28 02:41:12;;;;;;;;;;;2.90;91.30;;;;;;4980451;28;19914;-89
2022/02/28 02:43:50;;;;;;;;;;;2.90;91.40;;;;;;4981415;28;19898;-89
2022/02/28 02:46:26;;;;;;;;;;;2.90;91.40;;;;;;4971055;28;19962;-86
2022/02/28 02:49:01;;;;;;;;;;;2.90;91.40;;;;;;4985938;28;19898;-86
2022/02/28 02:51:38;;;;;;;;;;;2.90;91.40;;;;;;4976076;28;20374;-87
2022/02/28 02:54:21;;;;;;;;;;;2.90;91.40;;;;;;4948286;28;20012;-87
2022/02/28 03:00:11;;;;;;;;;;;2.80;91.40;;;;;;4965610;28;19914;-84
2022/02/28 03:02:39;;;;;;;;;;;2.80;91.50;;;;;;4962118;28;19917;-85
2022/02/28 03:05:07;;;;;;;;;;;2.80;91.50;;;;;;4961718;28;19917;-88
2022/02/28 03:07:38;;;;;;;;;;;2.80;91.50;;;;;;4961399;28;20478;-87
2022/02/28 03:10:03;;;;;;;;;;;2.80;91.50;;;;;;4961379;28;20020;-88
2022/02/28 03:12:39;;;;;;;;;;;2.80;91.50;;;;;;4979007;28;19958;-86
2022/02/28 03:15:05;;;;;;;;;;;2.80;91.40;;;;;;4978706;28;19910;-88
2022/02/28 03:17:34;;;;;;;;;;;2.80;91.40;;;;;;4961793;28;19997;-87
2022/02/28 03:20:03;;;;;;;;;;;2.80;91.40;;;;;;4979272;28;19937;-87
2022/02/28 03:22:31;;;;;;;;;;;2.80;91.40;;;;;;4961097;28;19910;-87
2022/02/28 03:25:05;;;;;;;;;;;2.80;91.50;;;;;;4944865;28;19914;-87
2022/02/28 03:27:31;;;;;;;;;;;2.80;91.40;;;;;;4960898;28;19918;-85
2022/02/28 03:29:59;;;;;;;;;;;2.80;91.50;;;;;;4960828;28;20302;-86
2022/02/28 03:32:27;;;;;;;;;;;2.80;91.50;;;;;;4961598;28;19993;-87
2022/02/28 03:34:53;;;;;;;;;;;2.80;91.50;;;;;;4977831;28;19922;-86
2022/02/28 03:37:18;;;;;;;;;;;2.70;91.50;;;;;;4960860;28;19914;-87
2022/02/28 03:39:44;;;;;;;;;;;2.70;91.50;;;;;;4961252;28;19910;-88
2022/02/28 03:42:12;;;;;;;;;;;2.80;91.50;;;;;;4961172;28;20380;-88
2022/02/28 03:44:43;;;;;;;;;;;2.70;91.50;;;;;;4961750;28;19950;-87
2022/02/28 03:47:12;;;;;;;;;;;2.70;91.60;;;;;;4960841;28;19966;-89
2022/02/28 03:49:40;;;;;;;;;;;2.70;91.60;;;;;;4960833;28;20026;-87
2022/02/28 03:52:16;;;;;;;;;;;2.70;91.60;;;;;;4961318;28;19938;-85
2022/02/28 03:54:47;;;;;;;;;;;2.60;91.70;;;;;;4961406;28;20364;-87
2022/02/28 03:57:15;;;;;;;;;;;2.60;91.70;;;;;;4961028;28;19910;-87
2022/02/28 03:59:45;;;;;;;;;;;2.50;91.70;;;;;;4960692;28;19918;-87
2022/02/28 04:02:16;;;;;;;;;;;2.40;91.80;;;;;;4961310;28;19914;-87
2022/02/28 04:04:42;;;;;;;;;;;2.30;91.90;;;;;;4962477;28;19910;-87
2022/02/28 04:07:09;;;;;;;;;;;2.30;92.10;;;;;;4966848;28;19977;-85
2022/02/28 04:09:39;;;;;;;;;;;2.20;92.20;;;;;;5001080;28;19969;-87
2022/02/28 04:12:08;;;;;;;;;;;2.20;92.30;;;;;;4983401;28;19918;-87
2022/02/28 04:17:51;;;;;;;;;;;2.00;92.40;;;;;;4977790;28;19937;-88
2022/02/28 04:20:22;;;;;;;;;;;2.00;92.50;;;;;;4945207;28;19917;-87
2022/02/28 04:22:51;;;;;;;;;;;2.00;92.60;;;;;;4961382;28;19914;-87
2022/02/28 04:28:14;;;;;;;;;;;1.90;92.70;;;;;;4969856;28;20371;-87
2022/02/28 04:30:45;;;;;;;;;;;1.80;92.80;;;;;;4960495;28;19914;-87
2022/02/28 04:33:13;;;;;;;;;;;1.80;92.90;;;;;;4959932;28;19923;-90
2022/02/28 04:35:46;;;;;;;;;;;1.80;93.00;;;;;;4943805;28;20413;-86
2022/02/28 04:38:17;;;;;;;;;;;1.80;93.00;;;;;;4959983;28;19910;-88
2022/02/28 04:40:49;;;;;;;;;;;1.80;93.00;;;;;;4960178;28;19911;-87
2022/02/28 04:43:25;;;;;;;;;;;1.80;93.00;;;;;;4957065;29;19911;-88
2022/02/28 04:45:51;;;;;;;;;;;1.90;93.00;;;;;;4957838;28;19921;-88
2022/02/28 04:48:24;;;;;;;;;;;1.90;93.00;;;;;;4956729;29;20362;-87
2022/02/28 04:50:57;;;;;;;;;;;1.90;93.00;;;;;;4959932;28;19949;-87
2022/02/28 04:53:33;;;;;;;;;;;;;;;;;;;;;
2022/02/28 04:56:07;;;;;;;;;;;1.90;93.00;;;;;;4977578;28;19913;-87
2022/02/28 04:58:33;;;;;;;;;;;1.90;93.00;;;;;;4960010;28;20358;-87
2022/02/28 05:03:50;;;;;;;;;;;1.80;93.00;;;;;;4962971;28;20328;-87
2022/02/28 05:06:46;;;;;;;;;;;1.80;93.10;;;;;;4976552;28;19910;-87
2022/02/28 05:09:22;;;;;;;;;;;;;;;;;;;;;
2022/02/28 05:11:50;;;;;;;;;;;1.70;93.20;;;;;;4977403;28;19910;-87
2022/02/28 05:14:18;;;;;;;;;;;1.70;93.30;;;;;;4959170;28;20009;-88
2022/02/28 05:16:53;;;;;;;;;;;1.70;93.30;;;;;;4976716;28;19914;-87
2022/02/28 05:19:23;;;;;;;;;;;1.60;93.30;;;;;;4959848;28;19954;-87
2022/02/28 05:21:56;;;;;;;;;;;1.70;93.40;;;;;;4960453;28;20385;-87
2022/02/28 05:24:24;;;;;;;;;;;1.60;93.40;;;;;;4962376;28;19910;-86
2022/02/28 05:26:52;;;;;;;;;;;1.60;93.40;;;;;;4963094;28;19929;-88
2022/02/28 05:29:28;;;;;;;;;;;;;;;;;;;;;
2022/02/28 05:32:13;;;;;;;;;;;;;;;;;;;;;
2022/02/28 05:34:59;;;;;;;;;;;1.70;93.60;;;;;;4998557;28;19925;-88
2022/02/28 05:37:30;;;;;;;;;;;1.60;93.60;;;;;;4957986;29;19917;-87
2022/02/28 05:39:58;;;;;;;;;;;1.60;93.60;;;;;;4940484;29;19957;-86
2022/02/28 05:42:32;;;;;;;;;;;1.60;93.70;;;;;;4957090;29;20393;-86
2022/02/28 05:45:05;;;;;;;;;;;1.50;93.70;;;;;;4939714;29;19911;-86
2022/02/28 05:47:42;;;;;;;;;;;1.50;93.80;;;;;;4956049;29;19915;-86
2022/02/28 05:50:21;;;;;;;;;;;;;;;;;;;;;
2022/02/28 05:53:04;;;;;;;;;;;1.40;93.90;;;;;;4973811;28;19916;-87
2022/02/28 05:55:43;;;;;;;;;;;1.40;94.00;;;;;;4942795;28;20358;-87
2022/02/28 05:58:10;;;;;;;;;;;1.40;94.00;;;;;;4960131;28;19920;-84
2022/02/28 06:00:44;;;;;;;;;;;1.30;94.10;;;;;;4978100;28;19965;-84
2022/02/28 06:03:09;;;;;;;;;;;1.30;94.10;;;;;;4960838;28;19957;-87
2022/02/28 06:05:45;;;;;;;;;;;1.20;94.20;;;;;;4959499;28;19910;-88
2022/02/28 06:08:41;;;;;;;;;;;1.20;94.30;;;;;;4943857;28;19925;-86
2022/02/28 06:11:10;;;;;;;;;;;1.20;94.30;;;;;;4976168;28;19953;-87
2022/02/28 06:13:38;;;;;;;;;;;1.20;94.40;;;;;;4955746;29;20379;-87
2022/02/28 06:16:09;;;;;;;;;;;1.20;94.40;;;;;;4958519;28;19910;-87
2022/02/28 06:18:55;;;;;;;;;;;1.20;94.40;;;;;;4959104;28;19910;-88
2022/02/28 06:21:37;;;;;;;;;;;1.20;94.40;;;;;;4959436;28;19968;-86
2022/02/28 06:24:12;;;;;;;;;;;1.20;94.40;;;;;;4958804;28;19918;-87
2022/02/28 06:26:40;;;;;;;;;;;1.20;94.40;;;;;;4959043;28;20367;-87
2022/02/28 06:29:25;;;;;;;;;;;1.30;94.50;;;;;;4942098;28;20278;-87
2022/02/28 06:32:01;;;;;;;;;;;;;;;;;;;;;
2022/02/28 06:34:32;;;;;;;;;;;1.30;94.50;;;;;;4975888;28;19922;-87
2022/02/28 06:37:24;;;;;;;;;;;1.30;94.50;;;;;;4945662;28;19929;-87
2022/02/28 06:39:54;;;;;;;;;;;1.30;94.50;;;;;;4960000;28;19961;-88
2022/02/28 06:42:56;;;;;;;;;;;1.20;94.50;;;;;;4963202;28;20012;-87
2022/02/28 06:45:24;;;;;;;;;;;1.30;94.60;;;;;;4964022;28;19918;-86
2022/02/28 06:48:08;;;;;;;;;;;1.20;94.60;;;;;;4969331;28;19914;-87
2022/02/28 06:50:45;;;;;;;;;;;1.30;94.60;;;;;;4985819;28;19922;-89
2022/02/28 06:53:33;;;;;;;;;;;;;;;;;;;;;
2022/02/28 06:59:14;;;;;;;;;;;;;;;;;;;;;
2022/02/28 07:01:42;;;;;;;;;;;1.20;94.70;;;;;;4981571;28;20016;-88
2022/02/28 07:04:17;;;;;;;;;;;1.20;94.70;;;;;;4949804;28;19914;-88
2022/02/28 07:09:48;;;;;;;;;;;1.20;94.80;;;;;;4959275;28;20021;-86
2022/02/28 07:12:14;;;;;;;;;;;1.10;94.80;;;;;;4962855;28;19953;-87
2022/02/28 07:14:45;;;;;;;;;;;1.10;94.90;;;;;;4960997;28;19960;-88
2022/02/28 07:17:55;;;;;;;;;;;1.10;94.90;;;;;;4963352;28;20267;-87
2022/02/28 07:20:25;;;;;;;;;;;1.10;95.00;;;;;;4959298;28;19914;-87
2022/02/28 07:23:14;;;;;;;;;;;1.10;95.10;;;;;;4979497;28;19910;-88
2022/02/28 07:25:48;;;;;;;;;;;1.10;95.20;;;;;;4961884;28;19914;-87
2022/02/28 07:28:21;;;;;;;;;;;1.10;95.30;;;;;;4962381;28;20392;-87
2022/02/28 07:33:51;;;;;;;;;;;;;;;;;;;;;
2022/02/28 07:36:29;;;;;;;;;;;1.20;95.40;;;;;;4982553;28;19992;-88
2022/02/28 07:39:00;;;;;;;;;;;1.30;95.40;;;;;;4965342;28;19914;-86
2022/02/28 07:41:48;;;;;;;;;;;1.40;95.40;;;;;;4966493;28;19965;-87
2022/02/28 07:44:29;;;;;;;;;;;;;;;;;;;;;
2022/02/28 07:47:10;;;;;;;;;;;1.50;95.40;;;;;;4970214;28;19997;-87
2022/02/28 07:55:59;;;;;;;;;;;1.60;95.40;;;;;;4920133;29;19947;-88
2022/02/28 08:01:33;;;;;;;;;;;1.70;95.40;;;;;;4957211;28;19914;-87
2022/02/28 08:10:20;;;;;;;;;;;1.90;95.30;;;;;;4970079;28;19902;-89
2022/02/28 08:13:15;;;;;;;;;;;2.00;95.30;;;;;;4983843;28;19937;-90
2022/02/28 08:18:42;;;;;;;;;;;;;;;;;;;;;
2022/02/28 08:21:40;;;;;;;;;;;2.30;95.10;;;;;;4979237;28;20414;-88
2022/02/28 08:24:14;;;;;;;;;;;2.40;95.10;;;;;;4978194;28;19911;-88
2022/02/28 08:27:06;;;;;;;;;;;2.40;95.00;;;;;;4946074;28;19944;-88
2022/02/28 08:29:41;;;;;;;;;;;2.50;95.00;;;;;;4962072;28;19918;-88
2022/02/28 08:32:26;;;;;;;;;;;2.60;95.00;;;;;;4961764;28;19997;-88
2022/02/28 08:35:22;;;;;;;;;;;2.70;94.90;;;;;;4963985;28;19922;-89
2022/02/28 08:44:28;;;;;;;;;;;;;;;;;;;;;
2022/02/28 08:47:09;;;;;;;;;;;3.00;94.70;;;;;;4981516;28;20004;-88
2022/02/28 08:50:00;;;;;;;;;;;3.20;94.60;;;;;;4962790;28;19914;-88
2022/02/28 08:52:35;;;;;;;;;;;3.30;94.60;;;;;;4963003;28;19910;-87
2022/02/28 08:55:06;;;;;;;;;;;3.30;94.50;;;;;;4962416;28;19914;-87
2022/02/28 09:00:30;;;;;;;;;;;3.50;94.40;;;;;;4966834;28;19964;-84
2022/02/28 09:03:18;;;;;;;;;;;3.60;94.30;;;;;;4977192;28;19910;-85
2022/02/28 09:05:44;;;;;;;;;;;3.60;94.30;;;;;;4942018;28;19914;-84
2022/02/28 09:08:20;;;;;;;;;;;3.80;94.20;;;;;;4963322;28;20378;-85
2022/02/28 09:11:00;;;;;;;;;;;;;;;;;;;;;
2022/02/28 09:16:41;;;;;;;;;;;4.00;93.80;;;;;;4907662;29;19986;-89
2022/02/28 09:19:20;;;;;;;;;;;4.10;93.80;;;;;;4924619;29;19915;-89
2022/02/28 09:21:59;;;;;;;;;;;;;;;;;;;;;
2022/02/28 09:24:33;;;;;;;;;;;4.30;93.60;;;;;;4958385;29;19917;-87
2022/02/28 09:27:36;;;;;;;;;;;;;;;;;;;;;
2022/02/28 09:30:17;;;;;;;;;;;;;;;;;;;;;
2022/02/28 09:32:45;;;;;;;;;;;4.60;93.40;;;;;;4966103;28;19969;-86
2022/02/28 09:35:30;;;;;;;;;;;;;;;;;;;;;
2022/02/28 09:38:08;;;;;;;;;;;4.70;93.20;;;;;;4980121;28;19922;-90
2022/02/28 09:40:51;;;;;;;;;;;4.80;93.10;;;;;;4976962;28;19929;-88
2022/02/28 09:46:13;;;;;;;;;;;4.90;93.10;;;;;;4956547;28;19933;-87
2022/02/28 09:48:39;;;;;;;;;;;5.00;93.00;;;;;;4958886;28;19921;-85
2022/02/28 09:51:33;;;;;;;;;;;5.10;93.00;;;;;;4958620;28;19918;-89
2022/02/28 09:54:27;;;;;;;;;;;5.10;92.80;;;;;;4941966;29;19965;-88
2022/02/28 09:57:12;;;;;;;;;;;5.20;92.60;;;;;;4926466;29;19914;-87
2022/02/28 10:02:39;;;;;;;;;;;;;;;;;;;;;
2022/02/28 10:05:27;;;;;;;;;;;5.40;92.30;;;;;;4953445;28;19925;-89
2022/02/28 10:08:23;;;;;;;;;;;;;;;;;;;;;
2022/02/28 10:11:07;;;;;;;;;;;5.50;92.10;;;;;;4977543;28;19996;-89
2022/02/28 10:16:33;;;;;;;;;;;5.70;91.70;;;;;;4966133;28;19910;-88
2022/02/28 10:28:57;;;;;;;;;;;;;;;;;;;;;
2022/02/28 10:34:34;;;;;;;;;;;6.10;91.30;;;;;;4870496;29;19923;-88
2022/02/28 10:37:18;;;;;;;;;;;6.20;91.30;;;;;;4927803;29;19918;-89
2022/02/28 10:40:12;;;;;;;;;;;6.30;90.40;;;;;;4943680;29;19914;-88
2022/02/28 10:43:06;;;;;;;;;;;6.40;90.30;;;;;;4945217;28;19960;-87
2022/02/28 10:45:59;;;;;;;;;;;6.50;90.40;;;;;;4941025;28;19981;-88
2022/02/28 10:48:48;;;;;;;;;;;6.50;90.40;;;;;;4900949;29;20447;-88
2022/02/28 10:51:34;;;;;;;;;;;6.60;90.00;;;;;;4841178;29;19940;-87
2022/02/28 10:54:21;;;;;;;;;;;6.60;89.70;;;;;;4839504;29;20418;-88
2022/02/28 10:59:56;;;;;;;;;;;6.80;89.80;;;;;;4940561;28;19966;-87
2022/02/28 11:06:09;;;;;;;;;;;6.90;87.90;;;;;;4998751;28;19915;-89
2022/02/28 11:09:07;;;;;;;;;;;7.00;87.80;;;;;;4984124;28;19917;-88
2022/02/28 11:18:12;;;;;;;;;;;;;;;;;;;;;
2022/02/28 11:23:47;;;;;;;;;;;7.30;86.90;;;;;;4961053;28;19910;-87
2022/02/28 11:26:33;;;;;;;;;;;7.40;86.90;;;;;;4961721;28;19917;-88
2022/02/28 11:29:33;;;;;;;;;;;7.40;86.40;;;;;;4956890;28;19958;-89
2022/02/28 11:32:19;;;;;;;;;;;;;;;;;;;;;
2022/02/28 11:35:15;;;;;;;;;;;7.50;85.80;;;;;;4978526;28;20305;-88
2022/02/28 11:38:24;;;;;;;;;;;7.50;85.40;;;;;;4961934;28;20000;-87
2022/02/28 11:41:03;;;;;;;;;;;7.60;85.80;;;;;;4976686;28;19948;-88
2022/02/28 11:46:53;;;;;;;;;;;7.70;85.50;;;;;;4967693;28;19914;-88
2022/02/28 11:55:52;;;;;;;;;;;7.90;82.00;;;;;;4899883;29;19958;-87
2022/02/28 11:58:54;;;;;;;;;;;;;;;;;;;;;
2022/02/28 12:01:57;;;;;;;;;;;8.00;81.50;;;;;;4948962;29;20009;-88
2022/02/28 12:04:55;;;;;;;;;;;8.00;81.20;;;;;;4927034;29;19917;-87
2022/02/28 12:07:39;;;;;;;;;;;8.10;80.60;;;;;;4910578;28;19926;-89
2022/02/28 12:10:31;;;;;;;;;;;8.10;80.50;;;;;;4943594;29;19918;-88
2022/02/28 12:13:25;;;;;;;;;;;8.20;80.60;;;;;;4949783;29;19915;-86
2022/02/28 12:19:37;;;;;;;;;;;8.30;80.30;;;;;;4972649;28;19961;-88
2022/02/28 12:22:11;;;;;;;;;;;8.30;80.40;;;;;;4923689;29;19939;-89
2022/02/28 12:25:18;;;;;;;;;;;8.40;79.00;;;;;;4955754;28;19972;-88
2022/02/28 12:27:49;;;;;;;;;;;8.40;78.20;;;;;;4961264;28;19977;-88
2022/02/28 12:30:33;;;;;;;;;;;8.50;77.60;;;;;;4967231;28;19921;-88
2022/02/28 12:33:24;;;;;;;;;;;8.50;77.20;;;;;;4983487;28;19898;-88
2022/02/28 12:35:57;;;;;;;;;;;8.60;78.00;;;;;;4983419;28;19926;-87
2022/02/28 12:38:43;;;;;;;;;;;8.60;78.30;;;;;;4980960;28;19914;-88
2022/02/28 12:41:32;;;;;;;;;;;8.70;76.20;;;;;;4960723;28;19958;-87
2022/02/28 12:44:18;;;;;;;;;;;8.80;76.40;;;;;;4918308;29;19918;-89
2022/02/28 12:46:53;;;;;;;;;;;8.80;76.30;;;;;;4961137;28;19938;-89
2022/02/28 12:49:57;;;;;;;;;;;8.90;77.70;;;;;;4960120;28;19918;-89
2022/02/28 12:52:39;;;;;;;;;;;;;;;;;;;;;
2022/02/28 12:55:18;;;;;;;;;;;9.00;76.80;;;;;;4978008;28;19910;-89
2022/02/28 12:58:06;;;;;;;;;;;9.00;75.70;;;;;;4960753;28;19910;-88
2022/02/28 13:00:56;;;;;;;;;;;9.00;75.60;;;;;;4951082;28;19910;-89
2022/02/28 13:03:40;;;;;;;;;;;9.00;75.30;;;;;;4960759;28;19910;-89
2022/02/28 13:06:18;;;;;;;;;;;9.10;75.90;;;;;;4960783;28;19950;-90
2022/02/28 13:09:00;;;;;;;;;;;9.10;76.00;;;;;;4960165;28;20001;-89
2022/02/28 13:14:38;;;;;;;;;;;9.10;75.20;;;;;;4970772;28;19921;-89
2022/02/28 13:17:03;;;;;;;;;;;9.20;74.80;;;;;;4945462;28;19914;-90
2022/02/28 13:19:52;;;;;;;;;;;;;;;;;;;;;
2022/02/28 13:22:50;;;;;;;;;;;;;;;;;;;;;
2022/02/28 13:25:33;;;;;;;;;;;9.30;74.40;;;;;;4974796;28;19910;-90
2022/02/28 13:28:33;;;;;;;;;;;9.30;74.20;;;;;;4959481;28;19914;-88
2022/02/28 13:33:52;;;;;;;;;;;9.40;73.60;;;;;;4944619;29;19915;-88
2022/02/28 13:36:33;;;;;;;;;;;;;;;;;;;;;
2022/02/28 13:39:08;;;;;;;;;;;9.50;73.70;;;;;;4942838;29;19921;-91
2022/02/28 13:48:25;;;;;;;;;;;9.60;73.90;;;;;;4879549;29;19930;-88
2022/02/28 13:51:05;;;;;;;;;;;9.60;73.50;;;;;;4869190;29;19922;-89
2022/02/28 13:54:10;;;;;;;;;;;;;;;;;;;;;
2022/02/28 14:02:28;;;;;;;;;;;;;;;;;;;;;
2022/02/28 14:08:16;;;;;;;;;;;;;;;;;;;;;
2022/02/28 14:10:44;;;;;;;;;;;9.90;72.40;;;;;;4983885;28;19914;-91
2022/02/28 14:13:38;;;;;;;;;;;9.80;72.70;;;;;;4967033;29;19915;-88
2022/02/28 14:16:31;;;;;;;;;;;;;;;;;;;;;
2022/02/28 14:19:20;;;;;;;;;;;9.90;72.00;;;;;;4981866;28;19983;-89
2022/02/28 14:22:09;;;;;;;;;;;9.90;72.20;;;;;;4963723;28;19914;-88
2022/02/28 14:25:06;;;;;;;;;;;9.90;72.30;;;;;;4958094;28;19937;-87
2022/02/28 14:27:42;;;;;;;;;;;;;;;;;;;;;
2022/02/28 14:30:43;;;;;;;;;;;9.90;71.30;;;;;;4946691;29;20007;-89
2022/02/28 14:37:14;;;;;;;;;;;10.00;71.80;;;;;;4847506;29;19931;-87
2022/02/28 14:43:27;;;;;;;;;;;10.00;71.80;;;;;;4969646;28;20060;-89
2022/02/28 14:46:23;;;;;;;;;;;;;;;;;;;;;
2022/02/28 14:48:57;;;;;;;;;;;10.00;71.40;;;;;;4980202;28;19921;-89
2022/02/28 14:54:12;;;;;;;;;;;10.10;71.70;;;;;;4967753;28;19914;-89
2022/02/28 14:57:04;;;;;;;;;;;10.00;70.70;;;;;;4963001;28;19914;-90
2022/02/28 14:59:50;;;;;;;;;;;10.00;70.30;;;;;;4955712;28;19961;-87
2022/02/28 15:02:29;;;;;;;;;;;;;;;;;;;;;
2022/02/28 15:05:21;;;;;;;;;;;10.10;70.60;;;;;;4980032;28;19910;-89
2022/02/28 15:07:52;;;;;;;;;;;10.10;70.50;;;;;;4964259;28;20374;-89
2022/02/28 15:10:48;;;;;;;;;;;10.20;70.80;;;;;;4963059;28;19925;-90
2022/02/28 15:19:11;;;;;;;;;;;10.20;68.80;;;;;;4969529;28;19914;-88
2022/02/28 15:22:05;;;;;;;;;;;10.40;69.00;;;;;;4966329;28;19911;-89
2022/02/28 15:24:32;;;;;;;;;;;10.60;68.70;;;;;;4975703;28;19917;-87
2022/02/28 15:30:07;;;;;;;;;;;11.00;67.70;;;;;;4937572;29;19970;-84
2022/02/28 15:32:41;;;;;;;;;;;11.10;68.20;;;;;;4955555;29;19910;-85
2022/02/28 15:38:31;;;;;;;;;;;11.10;68.00;;;;;;4975935;29;19921;-86
2022/02/28 15:41:17;;;;;;;;;;;11.10;68.00;;;;;;4963916;28;19906;-83
2022/02/28 15:49:37;;;;;;;;;;;;;;;;;;;;;
2022/02/28 15:52:24;;;;;;;;;;;;;;;;;;;;;
2022/02/28 15:54:56;;;;;;;;;;;10.60;67.70;;;;;;4963452;28;19914;-87
2022/02/28 15:57:23;;;;;;;;;;;10.60;67.60;;;;;;4960654;28;19933;-90
2022/02/28 15:59:52;;;;;;;;;;;10.50;67.50;;;;;;4960176;28;19921;-87
2022/02/28 16:02:20;;;;;;;;;;;10.40;67.80;;;;;;4960496;28;19977;-86
2022/02/28 16:05:01;;;;;;;;;;;10.40;67.70;;;;;;4960272;28;19961;-86
2022/02/28 16:07:32;;;;;;;;;;;10.30;67.80;;;;;;4961079;28;20285;-87
2022/02/28 16:10:01;;;;;;;;;;;10.20;67.90;;;;;;4961729;28;19960;-87
2022/02/28 16:12:43;;;;;;;;;;;;;;;;;;;;;
2022/02/28 16:15:13;;;;;;;;;;;10.10;68.20;;;;;;4978416;28;19917;-88
2022/02/28 16:17:44;;;;;;;;;;;10.10;68.60;;;;;;4961408;28;19910;-88
2022/02/28 16:20:31;;;;;;;;;;;;;;;;;;;;;
2022/02/28 16:23:06;;;;;;;;;;;10.00;69.00;;;;;;4962868;28;19941;-89
2022/02/28 16:25:44;;;;;;;;;;;;;;;;;;;;;
2022/02/28 16:31:27;;;;;;;;;;;9.80;69.40;;;;;;4934000;28;19918;-88
2022/02/28 16:34:11;;;;;;;;;;;9.70;69.70;;;;;;4976586;28;19914;-87
2022/02/28 16:37:13;;;;;;;;;;;;;;;;;;;;;
2022/02/28 16:43:14;;;;;;;;;;;;;;;;;;;;;
2022/02/28 16:48:58;;;;;;;;;;;;;;;;;;;;;
2022/02/28 16:51:35;;;;;;;;;;;9.30;70.70;;;;;;4977915;28;19910;-88
2022/02/28 16:54:34;;;;;;;;;;;;;;;;;;;;;
2022/02/28 16:57:18;;;;;;;;;;;9.20;70.90;;;;;;4959745;28;20032;-89
2022/02/28 16:59:45;;;;;;;;;;;9.10;71.00;;;;;;4945717;28;19929;-88
2022/02/28 17:08:18;;;;;;;;;;;8.90;71.40;;;;;;4965802;28;19921;-86
2022/02/28 17:10:48;;;;;;;;;;;8.90;71.70;;;;;;4944015;28;20351;-87
2022/02/28 17:16:33;;;;;;;;;;;8.70;72.10;;;;;;4981156;28;19929;-87
2022/02/28 17:19:01;;;;;;;;;;;8.70;72.50;;;;;;4981229;28;19899;-86
2022/02/28 17:24:47;;;;;;;;;;;8.50;73.40;;;;;;4989444;28;19921;-87
2022/02/28 17:27:16;;;;;;;;;;;8.40;73.70;;;;;;4941576;29;19914;-88
2022/02/28 17:29:52;;;;;;;;;;;;;;;;;;;;;
2022/02/28 17:32:34;;;;;;;;;;;8.20;74.50;;;;;;4957983;29;19911;-89
2022/02/28 17:35:26;;;;;;;;;;;8.10;74.80;;;;;;4940544;29;19954;-88
2022/02/28 17:38:04;;;;;;;;;;;;;;;;;;;;;
2022/02/28 17:40:53;;;;;;;;;;;7.90;75.60;;;;;;4976625;28;20382;-89
2022/02/28 17:43:19;;;;;;;;;;;7.80;75.90;;;;;;4954085;28;19910;-87
2022/02/28 17:45:44;;;;;;;;;;;7.70;76.20;;;;;;4960079;28;19910;-87
2022/02/28 17:48:17;;;;;;;;;;;7.60;76.60;;;;;;4959612;28;19941;-88
2022/02/28 17:51:01;;;;;;;;;;;7.60;76.90;;;;;;4956826;28;19918;-89
2022/02/28 17:53:29;;;;;;;;;;;7.40;77.20;;;;;;4940370;29;19965;-90
2022/02/28 17:56:07;;;;;;;;;;;7.40;77.50;;;;;;4940277;29;19910;-89
2022/02/28 17:58:53;;;;;;;;;;;7.20;77.80;;;;;;4940428;29;19973;-91
2022/02/28 18:01:31;;;;;;;;;;;7.20;78.20;;;;;;4939791;29;19910;-89
2022/02/28 18:03:57;;;;;;;;;;;7.10;78.50;;;;;;4955206;28;20397;-88
2022/02/28 18:06:29;;;;;;;;;;;7.00;78.70;;;;;;4964546;28;19910;-89
2022/02/28 18:09:02;;;;;;;;;;;6.90;78.90;;;;;;4949477;28;19922;-88
2022/02/28 18:12:00;;;;;;;;;;;6.80;79.10;;;;;;4947981;28;19978;-89
2022/02/28 18:14:46;;;;;;;;;;;6.80;79.50;;;;;;4959667;28;19910;-88
2022/02/28 18:20:46;;;;;;;;;;;6.60;79.90;;;;;;4975579;28;19914;-89
2022/02/28 18:29:27;;;;;;;;;;;6.30;80.80;;;;;;4903574;29;19923;-88
2022/02/28 18:35:22;;;;;;;;;;;;;;;;;;;;;
2022/02/28 18:44:55;;;;;;;;;;;;;;;;;;;;;
2022/02/28 18:48:26;;;;;;;;;;;6.10;82.50;;;;;;4906296;29;19955;-89
2022/02/28 18:53:25;;;;;;;;;;;6.00;82.70;;;;;;4980869;28;19922;-90
2022/02/28 18:56:22;;;;;;;;;;;;;;;;;;;;;
2022/02/28 18:59:12;;;;;;;;;;;;;;;;;;;;;
2022/02/28 19:01:58;;;;;;;;;;;6.10;82.40;;;;;;4954277;29;20415;-89
2022/02/28 19:08:03;;;;;;;;;;;;;;;;;;;;;
2022/02/28 19:11:10;;;;;;;;;;;;;;;;;;;;;
2022/02/28 19:14:04;;;;;;;;;;;;;;;;;;;;;
2022/02/28 19:16:54;;;;;;;;;;;;;;;;;;;;;
2022/02/28 19:22:47;;;;;;;;;;;6.00;82.20;;;;;;4905509;29;20372;-91
2022/02/28 19:25:32;;;;;;;;;;;6.00;82.20;;;;;;4906337;29;19912;-92
2022/02/28 19:28:13;;;;;;;;;;;5.90;82.20;;;;;;4906667;29;19950;-90
2022/02/28 19:31:12;;;;;;;;;;;;;;;;;;;;;
2022/02/28 19:34:03;;;;;;;;;;;6.00;81.90;;;;;;4887658;29;20006;-89
2022/02/28 19:37:01;;;;;;;;;;;;;;;;;;;;;
2022/02/28 19:42:51;;;;;;;;;;;;;;;;;;;;;
2022/02/28 19:45:40;;;;;;;;;;;6.00;81.00;;;;;;4902199;29;19922;-89
2022/02/28 19:48:34;;;;;;;;;;;6.00;80.70;;;;;;4901417;29;19932;-90
2022/02/28 19:55:36;;;;;;;;;;;;;;;;;;;;;
2022/02/28 19:57:46;;;;;;;;;;;;;;;;;;;;;
2022/02/28 20:06:52;;;;;;;;;;;5.90;80.20;;;;;;4916894;29;19912;-89
2022/02/28 20:12:57;;;;;;;;;;;;;;;;;;;;;
2022/02/28 20:15:44;;;;;;;;;;;;;;;;;;;;;
2022/02/28 20:21:35;;;;;;;;;;;5.80;80.30;;;;;;4921886;28;19937;-89
2022/02/28 20:27:29;;;;;;;;;;;;;;;;;;;;;
2022/02/28 20:33:00;;;;;;;;;;;;;;;;;;;;;
2022/02/28 20:35:45;;;;;;;;;;;5.50;81.70;;;;;;4978590;28;19914;-88